sensor_id;sensor_type;location;lat;lon;timestamp;temperature;humidity
23731;DHT22;12046;44.702;10.622;2023-04-07T00:01:45;10.10;66.80
23731;DHT22;12046;44.702;10.622;2023-04-07T00:04:10;10.20;66.90
23731;DHT22;12046;44.702;10.622;2023-04-07T00:06:36;10.20;66.90
23731;DHT22;12046;44.702;10.622;2023-04-07T00:09:02;10.20;67.00
23731;DHT22;12046;44.702;10.622;2023-04-07T00:11:28;10.20;67.10
23731;DHT22;12046;44.702;10.622;2023-04-07T00:13:53;10.20;67.20
23731;DHT22;12046;44.702;10.622;2023-04-07T00:16:19;10.20;67.30
23731;DHT22;12046;44.702;10.622;2023-04-07T00:18:46;10.10;67.30
23731;DHT22;12046;44.702;10.622;2023-04-07T00:21:11;10.10;67.40
23731;DHT22;12046;44.702;10.622;2023-04-07T00:23:37;10.10;67.60
23731;DHT22;12046;44.702;10.622;2023-04-07T00:26:03;10.10;67.80
23731;DHT22;12046;44.702;10.622;2023-04-07T00:28:28;10.10;67.80
23731;DHT22;12046;44.702;10.622;2023-04-07T00:30:54;10.00;67.80
23731;DHT22;12046;44.702;10.622;2023-04-07T00:33:20;9.90;68.00
23731;DHT22;12046;44.702;10.622;2023-04-07T00:35:46;9.90;68.10
23731;DHT22;12046;44.702;10.622;2023-04-07T00:38:11;9.90;68.20
23731;DHT22;12046;44.702;10.622;2023-04-07T00:40:37;9.90;68.30
23731;DHT22;12046;44.702;10.622;2023-04-07T00:43:03;9.80;68.50
23731;DHT22;12046;44.702;10.622;2023-04-07T00:45:29;9.80;68.80
23731;DHT22;12046;44.702;10.622;2023-04-07T00:47:56;9.80;69.00
23731;DHT22;12046;44.702;10.622;2023-04-07T00:50:22;9.80;69.00
23731;DHT22;12046;44.702;10.622;2023-04-07T00:52:49;9.70;69.20
23731;DHT22;12046;44.702;10.622;2023-04-07T00:55:15;9.70;69.40
23731;DHT22;12046;44.702;10.622;2023-04-07T00:57:41;9.60;69.50
23731;DHT22;12046;44.702;10.622;2023-04-07T01:00:08;9.60;69.70
23731;DHT22;12046;44.702;10.622;2023-04-07T01:03:00;9.50;69.90
23731;DHT22;12046;44.702;10.622;2023-04-07T01:11:07;9.20;70.30
23731;DHT22;12046;44.702;10.622;2023-04-07T01:13:43;9.10;70.40
23731;DHT22;12046;44.702;10.622;2023-04-07T01:16:14;9.10;70.60
23731;DHT22;12046;44.702;10.622;2023-04-07T01:18:43;9.10;70.90
23731;DHT22;12046;44.702;10.622;2023-04-07T01:21:16;9.10;71.10
23731;DHT22;12046;44.702;10.622;2023-04-07T01:26:22;9.10;71.00
23731;DHT22;12046;44.702;10.622;2023-04-07T01:31:16;9.10;70.70
23731;DHT22;12046;44.702;10.622;2023-04-07T01:33:44;9.10;70.50
23731;DHT22;12046;44.702;10.622;2023-04-07T01:36:11;9.10;70.40
23731;DHT22;12046;44.702;10.622;2023-04-07T01:38:38;9.00;70.30
23731;DHT22;12046;44.702;10.622;2023-04-07T01:41:05;9.00;70.30
23731;DHT22;12046;44.702;10.622;2023-04-07T01:43:32;9.00;70.30
23731;DHT22;12046;44.702;10.622;2023-04-07T01:45:58;8.90;70.20
23731;DHT22;12046;44.702;10.622;2023-04-07T01:48:25;8.90;70.20
23731;DHT22;12046;44.702;10.622;2023-04-07T01:50:52;8.80;70.10
23731;DHT22;12046;44.702;10.622;2023-04-07T01:53:18;8.80;70.10
23731;DHT22;12046;44.702;10.622;2023-04-07T01:55:44;8.80;70.10
23731;DHT22;12046;44.702;10.622;2023-04-07T01:58:10;8.70;70.00
23731;DHT22;12046;44.702;10.622;2023-04-07T02:00:36;8.70;70.10
23731;DHT22;12046;44.702;10.622;2023-04-07T02:03:12;8.80;70.10
23731;DHT22;12046;44.702;10.622;2023-04-07T02:05:47;8.70;70.10
23731;DHT22;12046;44.702;10.622;2023-04-07T02:08:16;8.80;70.20
23731;DHT22;12046;44.702;10.622;2023-04-07T02:10:46;8.80;70.10
23731;DHT22;12046;44.702;10.622;2023-04-07T02:13:15;8.70;70.10
23731;DHT22;12046;44.702;10.622;2023-04-07T02:15:43;8.70;70.20
23731;DHT22;12046;44.702;10.622;2023-04-07T02:18:13;8.70;70.30
23731;DHT22;12046;44.702;10.622;2023-04-07T02:20:41;8.70;70.50
23731;DHT22;12046;44.702;10.622;2023-04-07T02:23:08;8.60;70.60
23731;DHT22;12046;44.702;10.622;2023-04-07T02:25:34;8.60;70.70
23731;DHT22;12046;44.702;10.622;2023-04-07T02:28:03;8.60;70.90
23731;DHT22;12046;44.702;10.622;2023-04-07T02:30:30;8.60;71.00
23731;DHT22;12046;44.702;10.622;2023-04-07T02:32:56;8.60;71.10
23731;DHT22;12046;44.702;10.622;2023-04-07T02:35:22;8.60;71.20
23731;DHT22;12046;44.702;10.622;2023-04-07T02:37:48;8.60;71.20
23731;DHT22;12046;44.702;10.622;2023-04-07T02:40:15;8.50;71.30
23731;DHT22;12046;44.702;10.622;2023-04-07T02:42:41;8.50;71.50
23731;DHT22;12046;44.702;10.622;2023-04-07T02:45:08;8.50;71.60
23731;DHT22;12046;44.702;10.622;2023-04-07T02:47:34;8.40;71.70
23731;DHT22;12046;44.702;10.622;2023-04-07T02:50:01;8.40;71.80
23731;DHT22;12046;44.702;10.622;2023-04-07T02:52:26;8.40;72.00
23731;DHT22;12046;44.702;10.622;2023-04-07T02:54:52;8.30;72.20
23731;DHT22;12046;44.702;10.622;2023-04-07T02:57:18;8.30;72.30
23731;DHT22;12046;44.702;10.622;2023-04-07T02:59:44;8.20;72.50
23731;DHT22;12046;44.702;10.622;2023-04-07T03:02:10;8.20;72.70
23731;DHT22;12046;44.702;10.622;2023-04-07T03:04:36;8.10;72.80
23731;DHT22;12046;44.702;10.622;2023-04-07T03:07:02;8.10;73.00
23731;DHT22;12046;44.702;10.622;2023-04-07T03:09:27;8.10;73.10
23731;DHT22;12046;44.702;10.622;2023-04-07T03:11:55;8.10;73.10
23731;DHT22;12046;44.702;10.622;2023-04-07T03:14:22;8.00;73.20
23731;DHT22;12046;44.702;10.622;2023-04-07T03:16:48;8.00;73.20
23731;DHT22;12046;44.702;10.622;2023-04-07T03:19:14;8.00;73.30
23731;DHT22;12046;44.702;10.622;2023-04-07T03:21:40;8.00;73.40
23731;DHT22;12046;44.702;10.622;2023-04-07T03:24:07;8.10;73.50
23731;DHT22;12046;44.702;10.622;2023-04-07T03:26:32;8.10;73.60
23731;DHT22;12046;44.702;10.622;2023-04-07T03:28:58;8.10;73.70
23731;DHT22;12046;44.702;10.622;2023-04-07T03:31:24;8.10;73.80
23731;DHT22;12046;44.702;10.622;2023-04-07T03:33:50;8.10;73.80
23731;DHT22;12046;44.702;10.622;2023-04-07T03:36:16;8.10;73.90
23731;DHT22;12046;44.702;10.622;2023-04-07T03:38:45;8.00;73.90
23731;DHT22;12046;44.702;10.622;2023-04-07T03:41:11;8.00;74.10
23731;DHT22;12046;44.702;10.622;2023-04-07T03:43:37;8.10;74.10
23731;DHT22;12046;44.702;10.622;2023-04-07T03:46:03;8.00;74.90
23731;DHT22;12046;44.702;10.622;2023-04-07T03:48:28;8.00;74.30
23731;DHT22;12046;44.702;10.622;2023-04-07T03:50:54;8.00;74.50
23731;DHT22;12046;44.702;10.622;2023-04-07T03:53:20;8.10;74.60
23731;DHT22;12046;44.702;10.622;2023-04-07T03:55:47;8.10;74.60
23731;DHT22;12046;44.702;10.622;2023-04-07T03:58:13;8.10;74.60
23731;DHT22;12046;44.702;10.622;2023-04-07T04:00:39;8.10;74.50
23731;DHT22;12046;44.702;10.622;2023-04-07T04:03:05;8.00;74.50
23731;DHT22;12046;44.702;10.622;2023-04-07T04:05:31;8.00;74.60
23731;DHT22;12046;44.702;10.622;2023-04-07T04:07:56;8.00;74.80
23731;DHT22;12046;44.702;10.622;2023-04-07T04:10:22;7.90;75.00
23731;DHT22;12046;44.702;10.622;2023-04-07T04:12:48;7.90;75.00
23731;DHT22;12046;44.702;10.622;2023-04-07T04:15:14;7.90;75.20
23731;DHT22;12046;44.702;10.622;2023-04-07T04:17:40;7.90;75.40
23731;DHT22;12046;44.702;10.622;2023-04-07T04:20:07;7.80;75.50
23731;DHT22;12046;44.702;10.622;2023-04-07T04:22:33;7.80;75.60
23731;DHT22;12046;44.702;10.622;2023-04-07T04:24:59;7.80;75.70
23731;DHT22;12046;44.702;10.622;2023-04-07T04:27:26;7.80;75.90
23731;DHT22;12046;44.702;10.622;2023-04-07T04:29:52;7.80;76.00
23731;DHT22;12046;44.702;10.622;2023-04-07T04:32:18;7.80;76.20
23731;DHT22;12046;44.702;10.622;2023-04-07T04:34:44;7.80;76.50
23731;DHT22;12046;44.702;10.622;2023-04-07T04:37:10;7.80;76.80
23731;DHT22;12046;44.702;10.622;2023-04-07T04:39:36;7.80;76.90
23731;DHT22;12046;44.702;10.622;2023-04-07T04:42:02;7.70;76.90
23731;DHT22;12046;44.702;10.622;2023-04-07T04:44:28;7.70;77.10
23731;DHT22;12046;44.702;10.622;2023-04-07T04:46:55;7.70;77.40
23731;DHT22;12046;44.702;10.622;2023-04-07T04:49:21;7.70;77.40
23731;DHT22;12046;44.702;10.622;2023-04-07T04:51:46;7.70;77.30
23731;DHT22;12046;44.702;10.622;2023-04-07T04:54:12;7.60;77.30
23731;DHT22;12046;44.702;10.622;2023-04-07T04:56:38;7.60;77.50
23731;DHT22;12046;44.702;10.622;2023-04-07T04:59:04;7.60;77.70
23731;DHT22;12046;44.702;10.622;2023-04-07T05:01:30;7.50;77.80
23731;DHT22;12046;44.702;10.622;2023-04-07T05:03:56;7.50;77.90
23731;DHT22;12046;44.702;10.622;2023-04-07T05:06:22;7.40;77.90
23731;DHT22;12046;44.702;10.622;2023-04-07T05:08:47;7.40;78.10
23731;DHT22;12046;44.702;10.622;2023-04-07T05:11:13;7.40;78.10
23731;DHT22;12046;44.702;10.622;2023-04-07T05:13:42;7.40;78.10
23731;DHT22;12046;44.702;10.622;2023-04-07T05:16:08;7.40;78.20
23731;DHT22;12046;44.702;10.622;2023-04-07T05:18:34;7.40;78.30
23731;DHT22;12046;44.702;10.622;2023-04-07T05:20:59;7.30;78.20
23731;DHT22;12046;44.702;10.622;2023-04-07T05:23:26;7.30;78.30
23731;DHT22;12046;44.702;10.622;2023-04-07T05:25:52;7.30;78.30
23731;DHT22;12046;44.702;10.622;2023-04-07T05:28:18;7.40;78.40
23731;DHT22;12046;44.702;10.622;2023-04-07T05:30:44;7.40;78.40
23731;DHT22;12046;44.702;10.622;2023-04-07T05:33:10;7.40;78.50
23731;DHT22;12046;44.702;10.622;2023-04-07T05:35:36;7.30;78.50
23731;DHT22;12046;44.702;10.622;2023-04-07T05:38:02;7.30;78.70
23731;DHT22;12046;44.702;10.622;2023-04-07T05:40:28;7.30;78.90
23731;DHT22;12046;44.702;10.622;2023-04-07T05:42:57;7.40;79.00
23731;DHT22;12046;44.702;10.622;2023-04-07T05:45:23;7.50;79.00
23731;DHT22;12046;44.702;10.622;2023-04-07T05:47:49;7.50;78.90
23731;DHT22;12046;44.702;10.622;2023-04-07T05:50:18;7.60;79.00
23731;DHT22;12046;44.702;10.622;2023-04-07T05:52:44;7.70;78.80
23731;DHT22;12046;44.702;10.622;2023-04-07T05:55:10;7.70;78.80
23731;DHT22;12046;44.702;10.622;2023-04-07T05:57:36;7.80;78.80
23731;DHT22;12046;44.702;10.622;2023-04-07T06:00:03;7.90;78.80
23731;DHT22;12046;44.702;10.622;2023-04-07T06:02:29;8.00;78.90
23731;DHT22;12046;44.702;10.622;2023-04-07T06:04:55;8.10;79.00
23731;DHT22;12046;44.702;10.622;2023-04-07T06:07:21;8.30;78.80
23731;DHT22;12046;44.702;10.622;2023-04-07T06:09:49;8.50;78.60
23731;DHT22;12046;44.702;10.622;2023-04-07T06:12:15;8.70;78.30
23731;DHT22;12046;44.702;10.622;2023-04-07T06:14:41;8.80;77.80
23731;DHT22;12046;44.702;10.622;2023-04-07T06:17:07;9.00;77.30
23731;DHT22;12046;44.702;10.622;2023-04-07T06:19:33;9.10;76.70
23731;DHT22;12046;44.702;10.622;2023-04-07T06:22:02;9.20;76.30
23731;DHT22;12046;44.702;10.622;2023-04-07T06:24:28;9.30;76.00
23731;DHT22;12046;44.702;10.622;2023-04-07T06:26:53;9.50;75.80
23731;DHT22;12046;44.702;10.622;2023-04-07T06:29:19;9.60;75.60
23731;DHT22;12046;44.702;10.622;2023-04-07T06:31:54;9.70;75.40
23731;DHT22;12046;44.702;10.622;2023-04-07T06:34:39;9.80;75.10
23731;DHT22;12046;44.702;10.622;2023-04-07T06:37:05;9.80;74.70
23731;DHT22;12046;44.702;10.622;2023-04-07T06:39:31;9.80;74.50
23731;DHT22;12046;44.702;10.622;2023-04-07T06:54:24;10.20;74.60
23731;DHT22;12046;44.702;10.622;2023-04-07T07:29:01;13.00;66.30
23731;DHT22;12046;44.702;10.622;2023-04-07T07:39:58;13.90;65.90
23731;DHT22;12046;44.702;10.622;2023-04-07T07:42:24;14.10;64.80
23731;DHT22;12046;44.702;10.622;2023-04-07T07:44:50;14.20;64.40
23731;DHT22;12046;44.702;10.622;2023-04-07T08:00:45;15.10;64.20
23731;DHT22;12046;44.702;10.622;2023-04-07T08:03:10;15.30;63.90
23731;DHT22;12046;44.702;10.622;2023-04-07T08:10:45;15.60;63.90
23731;DHT22;12046;44.702;10.622;2023-04-07T08:13:11;15.70;64.20
23731;DHT22;12046;44.702;10.622;2023-04-07T08:15:37;15.80;64.30
23731;DHT22;12046;44.702;10.622;2023-04-07T08:18:03;15.90;64.20
23731;DHT22;12046;44.702;10.622;2023-04-07T08:20:31;16.00;64.10
23731;DHT22;12046;44.702;10.622;2023-04-07T08:22:57;16.10;64.00
23731;DHT22;12046;44.702;10.622;2023-04-07T08:25:27;16.20;64.00
23731;DHT22;12046;44.702;10.622;2023-04-07T08:33:23;16.30;63.80
23731;DHT22;12046;44.702;10.622;2023-04-07T08:35:49;16.40;63.90
23731;DHT22;12046;44.702;10.622;2023-04-07T08:45:58;16.70;64.00
23731;DHT22;12046;44.702;10.622;2023-04-07T08:48:26;16.80;63.80
23731;DHT22;12046;44.702;10.622;2023-04-07T08:51:03;16.90;63.10
23731;DHT22;12046;44.702;10.622;2023-04-07T08:53:36;16.90;62.50
23731;DHT22;12046;44.702;10.622;2023-04-07T08:56:05;17.00;62.90
23731;DHT22;12046;44.702;10.622;2023-04-07T08:58:32;17.00;62.20
23731;DHT22;12046;44.702;10.622;2023-04-07T09:00:58;17.10;62.00
23731;DHT22;12046;44.702;10.622;2023-04-07T09:03:28;17.20;62.20
23731;DHT22;12046;44.702;10.622;2023-04-07T09:06:15;17.30;62.30
23731;DHT22;12046;44.702;10.622;2023-04-07T09:08:42;17.40;62.40
23731;DHT22;12046;44.702;10.622;2023-04-07T09:11:07;17.60;62.40
23731;DHT22;12046;44.702;10.622;2023-04-07T09:13:33;17.70;62.30
23731;DHT22;12046;44.702;10.622;2023-04-07T09:16:01;17.90;62.40
23731;DHT22;12046;44.702;10.622;2023-04-07T09:18:27;18.00;62.20
23731;DHT22;12046;44.702;10.622;2023-04-07T09:25:58;18.50;61.30
23731;DHT22;12046;44.702;10.622;2023-04-07T09:28:43;18.70;60.90
23731;DHT22;12046;44.702;10.622;2023-04-07T09:31:09;18.80;60.40
23731;DHT22;12046;44.702;10.622;2023-04-07T09:33:35;19.00;59.90
23731;DHT22;12046;44.702;10.622;2023-04-07T09:36:02;19.10;59.60
23731;DHT22;12046;44.702;10.622;2023-04-07T09:38:36;19.20;58.70
23731;DHT22;12046;44.702;10.622;2023-04-07T09:41:10;19.30;58.60
23731;DHT22;12046;44.702;10.622;2023-04-07T09:43:38;19.40;58.60
23731;DHT22;12046;44.702;10.622;2023-04-07T09:48:35;19.80;57.70
23731;DHT22;12046;44.702;10.622;2023-04-07T09:51:15;20.10;57.40
23731;DHT22;12046;44.702;10.622;2023-04-07T09:53:46;20.40;56.90
23731;DHT22;12046;44.702;10.622;2023-04-07T09:56:16;20.70;57.10
23731;DHT22;12046;44.702;10.622;2023-04-07T09:58:44;21.00;55.90
23731;DHT22;12046;44.702;10.622;2023-04-07T10:01:11;21.20;55.70
23731;DHT22;12046;44.702;10.622;2023-04-07T10:03:38;21.50;55.60
23731;DHT22;12046;44.702;10.622;2023-04-07T10:06:05;21.70;55.20
23731;DHT22;12046;44.702;10.622;2023-04-07T10:08:33;21.80;55.00
23731;DHT22;12046;44.702;10.622;2023-04-07T10:11:02;22.00;54.10
23731;DHT22;12046;44.702;10.622;2023-04-07T10:13:34;22.20;53.80
23731;DHT22;12046;44.702;10.622;2023-04-07T10:16:05;22.50;53.20
23731;DHT22;12046;44.702;10.622;2023-04-07T10:18:36;22.60;52.90
23731;DHT22;12046;44.702;10.622;2023-04-07T10:21:04;22.80;52.40
23731;DHT22;12046;44.702;10.622;2023-04-07T10:26:34;23.00;51.70
23731;DHT22;12046;44.702;10.622;2023-04-07T10:29:09;23.00;51.30
23731;DHT22;12046;44.702;10.622;2023-04-07T10:31:37;23.10;50.40
23731;DHT22;12046;44.702;10.622;2023-04-07T10:34:03;23.00;49.40
23731;DHT22;12046;44.702;10.622;2023-04-07T10:37:08;22.90;49.50
23731;DHT22;12046;44.702;10.622;2023-04-07T10:45:55;22.40;49.50
23731;DHT22;12046;44.702;10.622;2023-04-07T10:53:31;22.30;50.40
23731;DHT22;12046;44.702;10.622;2023-04-07T10:55:58;22.20;50.40
23731;DHT22;12046;44.702;10.622;2023-04-07T10:58:28;22.20;50.40
23731;DHT22;12046;44.702;10.622;2023-04-07T11:03:32;22.10;50.50
23731;DHT22;12046;44.702;10.622;2023-04-07T11:06:12;22.00;50.70
23731;DHT22;12046;44.702;10.622;2023-04-07T11:08:43;21.90;50.40
23731;DHT22;12046;44.702;10.622;2023-04-07T11:11:11;21.90;50.20
23731;DHT22;12046;44.702;10.622;2023-04-07T11:16:09;21.80;50.00
23731;DHT22;12046;44.702;10.622;2023-04-07T11:18:36;21.70;50.00
23731;DHT22;12046;44.702;10.622;2023-04-07T11:21:03;21.70;50.20
23731;DHT22;12046;44.702;10.622;2023-04-07T11:23:43;21.60;51.00
23731;DHT22;12046;44.702;10.622;2023-04-07T11:26:12;21.60;50.70
23731;DHT22;12046;44.702;10.622;2023-04-07T11:29:07;21.50;50.90
23731;DHT22;12046;44.702;10.622;2023-04-07T11:31:33;21.40;51.20
23731;DHT22;12046;44.702;10.622;2023-04-07T11:34:02;21.30;50.50
23731;DHT22;12046;44.702;10.622;2023-04-07T11:36:47;21.20;49.60
23731;DHT22;12046;44.702;10.622;2023-04-07T11:39:20;20.90;50.20
23731;DHT22;12046;44.702;10.622;2023-04-07T11:41:47;20.70;50.70
23731;DHT22;12046;44.702;10.622;2023-04-07T11:44:13;20.60;50.80
23731;DHT22;12046;44.702;10.622;2023-04-07T11:46:54;20.60;50.80
23731;DHT22;12046;44.702;10.622;2023-04-07T11:49:20;20.50;51.00
23731;DHT22;12046;44.702;10.622;2023-04-07T11:51:46;20.50;51.40
23731;DHT22;12046;44.702;10.622;2023-04-07T11:54:12;20.50;51.80
23731;DHT22;12046;44.702;10.622;2023-04-07T11:56:46;20.50;52.10
23731;DHT22;12046;44.702;10.622;2023-04-07T11:59:22;20.50;52.20
23731;DHT22;12046;44.702;10.622;2023-04-07T12:01:50;20.50;52.30
23731;DHT22;12046;44.702;10.622;2023-04-07T12:04:16;20.50;52.60
23731;DHT22;12046;44.702;10.622;2023-04-07T12:06:42;20.50;52.60
23731;DHT22;12046;44.702;10.622;2023-04-07T12:09:24;20.50;52.60
23731;DHT22;12046;44.702;10.622;2023-04-07T12:11:54;20.40;52.60
23731;DHT22;12046;44.702;10.622;2023-04-07T12:14:20;20.40;52.40
23731;DHT22;12046;44.702;10.622;2023-04-07T12:16:46;20.40;52.60
23731;DHT22;12046;44.702;10.622;2023-04-07T12:19:12;20.30;52.80
23731;DHT22;12046;44.702;10.622;2023-04-07T12:21:38;20.30;53.00
23731;DHT22;12046;44.702;10.622;2023-04-07T12:24:03;20.30;53.00
23731;DHT22;12046;44.702;10.622;2023-04-07T12:26:29;20.20;52.90
23731;DHT22;12046;44.702;10.622;2023-04-07T12:28:55;20.20;53.00
23731;DHT22;12046;44.702;10.622;2023-04-07T12:31:23;20.10;53.60
23731;DHT22;12046;44.702;10.622;2023-04-07T12:33:49;20.00;53.00
23731;DHT22;12046;44.702;10.622;2023-04-07T12:36:14;19.90;53.10
23731;DHT22;12046;44.702;10.622;2023-04-07T12:38:40;19.90;53.90
23731;DHT22;12046;44.702;10.622;2023-04-07T12:41:06;19.80;53.30
23731;DHT22;12046;44.702;10.622;2023-04-07T12:43:33;19.80;53.30
23731;DHT22;12046;44.702;10.622;2023-04-07T12:45:59;19.70;53.40
23731;DHT22;12046;44.702;10.622;2023-04-07T12:48:25;19.70;53.60
23731;DHT22;12046;44.702;10.622;2023-04-07T12:50:52;19.60;53.70
23731;DHT22;12046;44.702;10.622;2023-04-07T12:53:17;19.50;53.80
23731;DHT22;12046;44.702;10.622;2023-04-07T12:55:43;19.50;53.80
23731;DHT22;12046;44.702;10.622;2023-04-07T12:58:09;19.40;54.00
23731;DHT22;12046;44.702;10.622;2023-04-07T13:00:35;19.30;54.00
23731;DHT22;12046;44.702;10.622;2023-04-07T13:03:01;19.20;54.00
23731;DHT22;12046;44.702;10.622;2023-04-07T13:05:28;19.00;53.90
23731;DHT22;12046;44.702;10.622;2023-04-07T13:07:54;18.80;54.10
23731;DHT22;12046;44.702;10.622;2023-04-07T13:10:19;18.70;54.30
23731;DHT22;12046;44.702;10.622;2023-04-07T13:12:46;18.60;54.40
23731;DHT22;12046;44.702;10.622;2023-04-07T13:15:11;18.60;54.50
23731;DHT22;12046;44.702;10.622;2023-04-07T13:17:37;18.50;54.50
23731;DHT22;12046;44.702;10.622;2023-04-07T13:20:04;18.40;54.50
23731;DHT22;12046;44.702;10.622;2023-04-07T13:22:31;18.30;54.60
23731;DHT22;12046;44.702;10.622;2023-04-07T13:24:56;18.20;54.70
23731;DHT22;12046;44.702;10.622;2023-04-07T13:27:22;18.10;54.80
23731;DHT22;12046;44.702;10.622;2023-04-07T13:29:48;18.00;54.90
23731;DHT22;12046;44.702;10.622;2023-04-07T13:32:14;17.90;55.00
23731;DHT22;12046;44.702;10.622;2023-04-07T13:34:40;17.90;55.10
23731;DHT22;12046;44.702;10.622;2023-04-07T13:37:06;17.90;55.20
23731;DHT22;12046;44.702;10.622;2023-04-07T13:39:32;17.80;55.10
23731;DHT22;12046;44.702;10.622;2023-04-07T13:41:58;17.80;55.20
23731;DHT22;12046;44.702;10.622;2023-04-07T13:44:27;17.80;55.10
23731;DHT22;12046;44.702;10.622;2023-04-07T13:46:54;17.80;55.10
23731;DHT22;12046;44.702;10.622;2023-04-07T13:49:21;17.80;55.30
23731;DHT22;12046;44.702;10.622;2023-04-07T13:51:47;17.90;55.60
23731;DHT22;12046;44.702;10.622;2023-04-07T13:54:13;17.80;55.80
23731;DHT22;12046;44.702;10.622;2023-04-07T13:56:38;17.80;56.10
23731;DHT22;12046;44.702;10.622;2023-04-07T13:59:05;17.80;56.40
23731;DHT22;12046;44.702;10.622;2023-04-07T14:01:32;17.70;56.60
23731;DHT22;12046;44.702;10.622;2023-04-07T14:03:59;17.60;56.50
23731;DHT22;12046;44.702;10.622;2023-04-07T14:06:25;17.50;56.50
23731;DHT22;12046;44.702;10.622;2023-04-07T14:08:51;17.40;56.60
23731;DHT22;12046;44.702;10.622;2023-04-07T14:11:20;17.30;56.60
23731;DHT22;12046;44.702;10.622;2023-04-07T14:13:47;17.30;56.90
23731;DHT22;12046;44.702;10.622;2023-04-07T14:16:14;17.30;57.10
23731;DHT22;12046;44.702;10.622;2023-04-07T14:18:39;17.30;57.30
23731;DHT22;12046;44.702;10.622;2023-04-07T14:21:05;17.30;57.50
23731;DHT22;12046;44.702;10.622;2023-04-07T14:23:31;17.30;57.70
23731;DHT22;12046;44.702;10.622;2023-04-07T14:26:00;17.30;57.90
23731;DHT22;12046;44.702;10.622;2023-04-07T14:28:26;17.30;58.00
23731;DHT22;12046;44.702;10.622;2023-04-07T14:30:53;17.20;58.60
23731;DHT22;12046;44.702;10.622;2023-04-07T14:33:20;17.20;58.90
23731;DHT22;12046;44.702;10.622;2023-04-07T14:35:47;17.20;59.00
23731;DHT22;12046;44.702;10.622;2023-04-07T14:38:13;17.10;59.20
23731;DHT22;12046;44.702;10.622;2023-04-07T14:40:39;17.00;59.20
23731;DHT22;12046;44.702;10.622;2023-04-07T14:43:05;17.00;59.30
23731;DHT22;12046;44.702;10.622;2023-04-07T14:45:32;17.00;59.40
23731;DHT22;12046;44.702;10.622;2023-04-07T14:47:59;17.00;59.50
23731;DHT22;12046;44.702;10.622;2023-04-07T14:50:25;17.00;59.60
23731;DHT22;12046;44.702;10.622;2023-04-07T14:52:51;17.00;59.80
23731;DHT22;12046;44.702;10.622;2023-04-07T14:55:18;17.00;60.10
23731;DHT22;12046;44.702;10.622;2023-04-07T14:57:44;17.00;60.40
23731;DHT22;12046;44.702;10.622;2023-04-07T15:00:10;17.00;60.90
23731;DHT22;12046;44.702;10.622;2023-04-07T15:02:36;16.90;61.40
23731;DHT22;12046;44.702;10.622;2023-04-07T15:05:04;16.90;62.00
23731;DHT22;12046;44.702;10.622;2023-04-07T15:07:30;16.90;62.50
23731;DHT22;12046;44.702;10.622;2023-04-07T15:09:56;16.90;62.50
23731;DHT22;12046;44.702;10.622;2023-04-07T15:12:24;16.90;62.40
23731;DHT22;12046;44.702;10.622;2023-04-07T15:14:56;16.80;62.00
23731;DHT22;12046;44.702;10.622;2023-04-07T15:17:22;16.70;61.90
23731;DHT22;12046;44.702;10.622;2023-04-07T15:19:47;16.70;62.00
23731;DHT22;12046;44.702;10.622;2023-04-07T15:22:13;16.60;62.00
23731;DHT22;12046;44.702;10.622;2023-04-07T15:24:39;16.60;62.10
23731;DHT22;12046;44.702;10.622;2023-04-07T15:27:05;16.60;62.20
23731;DHT22;12046;44.702;10.622;2023-04-07T15:29:31;16.50;62.20
23731;DHT22;12046;44.702;10.622;2023-04-07T15:31:57;16.50;62.20
23731;DHT22;12046;44.702;10.622;2023-04-07T15:34:22;16.50;62.20
23731;DHT22;12046;44.702;10.622;2023-04-07T15:36:48;16.50;62.30
23731;DHT22;12046;44.702;10.622;2023-04-07T15:39:14;16.50;62.60
23731;DHT22;12046;44.702;10.622;2023-04-07T15:41:40;16.50;62.70
23731;DHT22;12046;44.702;10.622;2023-04-07T15:44:06;16.40;62.70
23731;DHT22;12046;44.702;10.622;2023-04-07T15:46:32;16.40;62.80
23731;DHT22;12046;44.702;10.622;2023-04-07T15:48:58;16.40;63.00
23731;DHT22;12046;44.702;10.622;2023-04-07T15:51:24;16.40;63.20
23731;DHT22;12046;44.702;10.622;2023-04-07T15:53:52;16.40;63.40
23731;DHT22;12046;44.702;10.622;2023-04-07T15:56:17;16.40;64.30
23731;DHT22;12046;44.702;10.622;2023-04-07T15:58:43;16.40;64.50
23731;DHT22;12046;44.702;10.622;2023-04-07T16:01:10;16.30;64.40
23731;DHT22;12046;44.702;10.622;2023-04-07T16:03:36;16.20;64.50
23731;DHT22;12046;44.702;10.622;2023-04-07T16:06:01;16.00;66.70
23731;DHT22;12046;44.702;10.622;2023-04-07T16:08:27;15.90;68.00
23731;DHT22;12046;44.702;10.622;2023-04-07T16:10:53;15.80;69.00
23731;DHT22;12046;44.702;10.622;2023-04-07T16:13:19;15.70;70.40
23731;DHT22;12046;44.702;10.622;2023-04-07T16:15:44;15.60;71.60
23731;DHT22;12046;44.702;10.622;2023-04-07T16:18:10;15.40;72.40
23731;DHT22;12046;44.702;10.622;2023-04-07T16:20:36;15.30;73.10
23731;DHT22;12046;44.702;10.622;2023-04-07T16:23:02;15.10;73.60
23731;DHT22;12046;44.702;10.622;2023-04-07T16:25:28;15.10;74.20
23731;DHT22;12046;44.702;10.622;2023-04-07T16:27:54;15.00;74.60
23731;DHT22;12046;44.702;10.622;2023-04-07T16:30:20;14.90;75.00
23731;DHT22;12046;44.702;10.622;2023-04-07T16:32:46;14.90;75.30
23731;DHT22;12046;44.702;10.622;2023-04-07T16:35:13;14.90;75.60
23731;DHT22;12046;44.702;10.622;2023-04-07T16:37:40;14.80;76.60
23731;DHT22;12046;44.702;10.622;2023-04-07T16:40:07;14.80;77.00
23731;DHT22;12046;44.702;10.622;2023-04-07T16:42:33;14.70;77.10
23731;DHT22;12046;44.702;10.622;2023-04-07T16:45:00;14.70;77.40
23731;DHT22;12046;44.702;10.622;2023-04-07T16:47:26;14.60;77.80
23731;DHT22;12046;44.702;10.622;2023-04-07T16:49:52;14.50;78.00
23731;DHT22;12046;44.702;10.622;2023-04-07T16:52:18;14.50;78.30
23731;DHT22;12046;44.702;10.622;2023-04-07T16:54:44;14.50;78.60
23731;DHT22;12046;44.702;10.622;2023-04-07T16:57:11;14.40;78.80
23731;DHT22;12046;44.702;10.622;2023-04-07T16:59:37;14.40;79.20
23731;DHT22;12046;44.702;10.622;2023-04-07T17:02:13;14.40;80.20
23731;DHT22;12046;44.702;10.622;2023-04-07T17:04:41;14.30;80.40
23731;DHT22;12046;44.702;10.622;2023-04-07T17:07:08;14.30;80.60
23731;DHT22;12046;44.702;10.622;2023-04-07T17:09:34;14.30;80.80
23731;DHT22;12046;44.702;10.622;2023-04-07T17:12:00;14.30;80.90
23731;DHT22;12046;44.702;10.622;2023-04-07T17:14:27;14.20;81.00
23731;DHT22;12046;44.702;10.622;2023-04-07T17:16:53;14.20;81.30
23731;DHT22;12046;44.702;10.622;2023-04-07T17:19:19;14.20;81.60
23731;DHT22;12046;44.702;10.622;2023-04-07T17:21:45;14.10;81.90
23731;DHT22;12046;44.702;10.622;2023-04-07T17:24:11;14.10;82.40
23731;DHT22;12046;44.702;10.622;2023-04-07T17:26:40;14.00;82.70